createdAt,value
2018-04-08T00:01:12.279Z,15.13
2018-04-08T00:03:40.426Z,13.73
2018-04-08T00:06:07.935Z,18.60
2018-04-08T00:08:35.388Z,11.83
2018-04-08T00:11:03.014Z,14.83
2018-04-08T00:13:34.646Z,14.20
2018-04-08T00:16:02.232Z,17.98
2018-04-08T00:18:30.848Z,14.80
2018-04-08T00:20:58.326Z,13.05
2018-04-08T00:23:26.110Z,17.43
2018-04-08T00:25:54.292Z,15.85
2018-04-08T00:28:25.585Z,23.58
2018-04-08T00:30:53.040Z,19.27
2018-04-08T00:33:20.524Z,17.17
2018-04-08T00:35:47.974Z,14.07
2018-04-08T00:38:15.452Z,15.40
2018-04-08T00:40:44.546Z,15.18
2018-04-08T00:43:12.038Z,29.07
2018-04-08T00:45:39.503Z,18.60
2018-04-08T00:48:06.976Z,20.87
2018-04-08T00:50:34.450Z,18.63
2018-04-08T00:53:01.904Z,17.43
2018-04-08T00:55:29.382Z,17.70
2018-04-08T00:57:57.772Z,19.37
2018-04-08T01:00:25.227Z,27.50
2018-04-08T01:02:53.463Z,32.43
2018-04-08T01:05:20.936Z,22.20
2018-04-08T01:07:48.390Z,21.47
2018-04-08T01:10:16.966Z,17.25
2018-04-08T01:12:44.404Z,15.73
2018-04-08T01:15:12.504Z,17.60
2018-04-08T01:17:39.949Z,15.70
2018-04-08T01:20:07.423Z,17.13
2018-04-08T01:22:35.409Z,19.70
2018-04-08T01:25:03.629Z,21.90
2018-04-08T01:27:31.367Z,20.92
2018-04-08T01:29:58.804Z,20.25
2018-04-08T01:32:26.305Z,17.83
2018-04-08T01:34:53.752Z,18.48
2018-04-08T01:37:21.197Z,15.77
2018-04-08T01:39:49.758Z,13.93
2018-04-08T01:42:17.224Z,13.73
2018-04-08T01:44:44.721Z,15.40
2018-04-08T01:47:12.276Z,13.97
2018-04-08T01:49:39.777Z,13.47
2018-04-08T01:52:07.247Z,15.30
2018-04-08T01:54:34.702Z,19.10
2018-04-08T01:57:03.873Z,14.27
2018-04-08T01:59:31.366Z,11.30
2018-04-08T02:01:58.853Z,14.50
2018-04-08T02:04:26.296Z,15.82
2018-04-08T02:06:53.910Z,17.80
2018-04-08T02:09:21.387Z,18.83
2018-04-08T02:11:49.125Z,13.73
2018-04-08T02:14:18.003Z,13.90
2018-04-08T02:16:45.451Z,10.13
2018-04-08T02:19:12.921Z,16.80
2018-04-08T02:21:40.494Z,13.67
2018-04-08T02:24:07.975Z,14.35
2018-04-08T02:26:36.345Z,16.83
2018-04-08T02:29:04.561Z,15.40
2018-04-08T02:31:32.266Z,12.97
2018-04-08T02:33:59.730Z,15.57
2018-04-08T02:36:27.320Z,13.62
2018-04-08T02:38:56.491Z,13.13
2018-04-08T02:41:23.925Z,17.10
2018-04-08T02:43:51.735Z,13.20
2018-04-08T02:46:20.404Z,11.90
2018-04-08T02:48:47.863Z,13.00
2018-04-08T02:51:15.403Z,12.83
2018-04-08T02:53:42.896Z,13.53
2018-04-08T02:56:10.350Z,17.13
2018-04-08T02:58:38.001Z,21.43
2018-04-08T03:01:05.444Z,14.18
2018-04-08T03:03:32.923Z,14.63
2018-04-08T03:06:00.380Z,19.50
2018-04-08T03:08:29.527Z,15.32
2018-04-08T03:10:57.013Z,15.53
2018-04-08T03:13:24.457Z,16.43
2018-04-08T03:15:51.932Z,17.47
2018-04-08T03:18:26.332Z,18.00
2018-04-08T03:20:53.976Z,13.50
2018-04-08T03:23:21.433Z,16.80
2018-04-08T03:25:48.888Z,15.03
2018-04-08T03:28:17.125Z,16.23
2018-04-08T03:30:45.360Z,20.40
2018-04-08T03:33:13.149Z,11.52
2018-04-08T03:35:40.621Z,13.57
2018-04-08T03:38:08.056Z,12.93
2018-04-08T03:40:35.844Z,16.12
2018-04-08T03:43:03.312Z,15.07
2018-04-08T03:45:30.858Z,13.43
2018-04-08T03:47:58.341Z,18.70
2018-04-08T03:50:26.490Z,12.70
2018-04-08T03:52:53.976Z,19.15
2018-04-08T03:55:21.433Z,14.23
2018-04-08T03:57:48.895Z,14.10
2018-04-08T04:00:16.685Z,13.00
2018-04-08T04:02:44.141Z,19.40
2018-04-08T04:05:11.591Z,14.83
2018-04-08T04:07:40.742Z,19.20
2018-04-08T04:10:08.968Z,20.08
2018-04-08T04:12:36.424Z,17.95
2018-04-08T04:15:03.900Z,20.60
2018-04-08T04:17:34.897Z,21.30
2018-04-08T04:20:14.238Z,17.33
2018-04-08T04:22:53.415Z,16.33
2018-04-08T04:25:27.437Z,17.33
2018-04-08T04:27:54.906Z,18.48
2018-04-08T04:30:23.165Z,13.62
2018-04-08T04:32:55.424Z,19.57
2018-04-08T04:35:22.869Z,24.37
2018-04-08T04:37:51.161Z,20.23
2018-04-08T04:40:19.311Z,19.95
2018-04-08T04:42:46.776Z,18.60
2018-04-08T04:45:14.237Z,17.27
2018-04-08T04:47:45.885Z,19.80
2018-04-08T04:50:15.768Z,17.05
2018-04-08T04:52:44.946Z,20.62
2018-04-08T04:55:12.586Z,22.83
2018-04-08T04:57:40.804Z,20.77
2018-04-08T05:00:09.210Z,16.52
2018-04-08T05:02:36.689Z,15.53
2018-04-08T05:05:04.888Z,19.12
2018-04-08T05:07:32.448Z,16.50
2018-04-08T05:10:00.085Z,16.90
2018-04-08T05:12:28.305Z,18.45
2018-04-08T05:14:55.765Z,15.73
2018-04-08T05:17:23.222Z,16.27
2018-04-08T05:19:50.702Z,15.80
2018-04-08T05:22:18.158Z,13.77
2018-04-08T05:24:45.634Z,14.90
2018-04-08T05:27:13.151Z,17.77
2018-04-08T05:29:40.738Z,12.80
2018-04-08T05:32:08.184Z,17.83
2018-04-08T05:34:39.257Z,16.30
2018-04-08T05:37:06.851Z,18.27
2018-04-08T05:39:34.572Z,26.52
2018-04-08T05:42:02.058Z,18.27
2018-04-08T05:44:29.509Z,19.90
2018-04-08T05:46:56.962Z,18.00
2018-04-08T05:49:24.426Z,21.80
2018-04-08T05:51:51.876Z,18.70
2018-04-08T05:54:19.382Z,21.40
2018-04-08T05:56:46.838Z,21.10
2018-04-08T05:59:15.221Z,25.70
2018-04-08T06:01:43.034Z,24.17
2018-04-08T06:04:14.304Z,21.47
2018-04-08T06:06:42.549Z,21.50
2018-04-08T06:09:10.926Z,19.80
2018-04-08T06:11:38.418Z,28.23
2018-04-08T06:14:05.880Z,26.23
2018-04-08T06:16:33.689Z,26.10
2018-04-08T06:19:01.174Z,26.33
2018-04-08T06:21:33.529Z,22.92
2018-04-08T06:24:00.981Z,23.17
2018-04-08T06:26:28.495Z,27.93
2018-04-08T06:28:55.980Z,22.20
2018-04-08T06:31:24.313Z,22.13
2018-04-08T06:33:51.796Z,23.73
2018-04-08T06:36:19.251Z,26.60
2018-04-08T06:38:46.718Z,26.47
2018-04-08T06:41:14.216Z,23.85
2018-04-08T06:43:41.690Z,22.70
2018-04-08T06:46:09.147Z,23.47
2018-04-08T06:48:36.664Z,27.13
2018-04-08T06:51:08.519Z,22.00
2018-04-08T06:53:35.979Z,20.23
2018-04-08T06:56:03.486Z,26.00
2018-04-08T06:58:31.729Z,24.73
2018-04-08T07:00:59.198Z,25.27
2018-04-08T07:03:27.429Z,25.30
2018-04-08T07:05:59.743Z,29.40
2018-04-08T07:08:27.902Z,26.42
2018-04-08T07:10:55.504Z,23.80
2018-04-08T07:13:22.980Z,23.87
2018-04-08T07:15:50.688Z,26.20
2018-04-08T07:18:18.269Z,30.33
2018-04-08T07:20:52.897Z,20.10
2018-04-08T07:23:25.166Z,20.33
2018-04-08T07:25:53.406Z,20.30
2018-04-08T07:28:20.899Z,22.47
2018-04-08T07:30:49.117Z,25.07
2018-04-08T07:33:16.584Z,23.40
2018-04-08T07:35:47.097Z,27.60
2018-04-08T07:38:14.545Z,24.65
2018-04-08T07:40:42.963Z,22.90
2018-04-08T07:43:10.433Z,21.47
2018-04-08T07:45:37.906Z,20.60
2018-04-08T07:48:06.127Z,22.27
2018-04-08T07:50:37.150Z,19.27
2018-04-08T07:53:04.674Z,23.80
2018-04-08T07:55:33.037Z,19.15
2018-04-08T07:58:00.513Z,27.20
2018-04-08T08:00:27.973Z,19.80
2018-04-08T08:02:55.425Z,19.23
2018-04-08T08:05:23.009Z,18.20
2018-04-08T08:07:51.407Z,17.83
2018-04-08T08:10:18.854Z,20.93
2018-04-08T08:12:46.365Z,22.27
2018-04-08T08:15:13.839Z,22.80
2018-04-08T08:17:41.296Z,19.98
2018-04-08T08:20:08.777Z,19.98
2018-04-08T08:22:36.259Z,22.90
2018-04-08T08:25:03.760Z,18.10
2018-04-08T08:27:31.224Z,24.65
2018-04-08T08:29:58.697Z,21.55
2018-04-08T08:32:26.951Z,20.33
2018-04-08T08:34:54.481Z,19.63
2018-04-08T08:37:21.934Z,18.37
2018-04-08T08:39:49.541Z,24.98
2018-04-08T08:42:18.724Z,18.50
2018-04-08T08:44:46.195Z,20.42
2018-04-08T08:47:13.678Z,18.53
2018-04-08T08:49:41.252Z,21.43
2018-04-08T08:52:12.152Z,19.67
2018-04-08T08:54:39.606Z,24.33
2018-04-08T08:57:08.793Z,19.55
2018-04-08T08:59:36.241Z,14.17
2018-04-08T09:02:04.004Z,17.00
2018-04-08T09:04:31.461Z,17.60
2018-04-08T09:07:03.128Z,15.88
2018-04-08T09:09:31.366Z,19.02
2018-04-08T09:11:58.816Z,19.60
2018-04-08T09:14:26.318Z,16.33
2018-04-08T09:16:53.786Z,14.70
2018-04-08T09:19:28.733Z,17.92
2018-04-08T09:21:58.938Z,19.47
2018-04-08T09:24:26.405Z,26.17
2018-04-08T09:26:54.662Z,21.35
2018-04-08T09:29:22.146Z,20.08
2018-04-08T09:31:49.639Z,20.25
2018-04-08T09:34:18.009Z,16.52
2018-04-08T09:36:45.719Z,19.57
2018-04-08T09:39:13.165Z,16.93
2018-04-08T09:41:40.769Z,14.35
2018-04-08T09:44:08.608Z,17.90
2018-04-08T09:46:36.992Z,16.52
2018-04-08T09:49:04.488Z,14.87
2018-04-08T09:51:31.933Z,16.73
2018-04-08T09:53:59.398Z,12.93
2018-04-08T09:56:26.886Z,13.60
2018-04-08T09:58:54.378Z,14.27
2018-04-08T10:01:28.184Z,16.50
2018-04-08T10:03:57.407Z,12.90
2018-04-08T10:06:25.048Z,13.75
2018-04-08T10:08:52.520Z,13.48
2018-04-08T10:11:20.001Z,12.93
2018-04-08T10:13:48.217Z,13.97
2018-04-08T10:16:16.190Z,14.00
2018-04-08T10:18:43.673Z,11.87
2018-04-08T10:21:11.168Z,14.27
2018-04-08T10:23:38.821Z,15.20
2018-04-08T10:26:06.295Z,12.63
2018-04-08T10:28:33.794Z,20.00
2018-04-08T10:31:01.261Z,18.30
2018-04-08T10:33:28.868Z,12.27
2018-04-08T10:35:56.464Z,14.37
2018-04-08T10:38:25.120Z,20.35
2018-04-08T10:40:52.596Z,11.75
2018-04-08T10:43:20.070Z,12.10
2018-04-08T10:45:47.531Z,12.17
2018-04-08T10:48:15.006Z,14.43
2018-04-08T10:50:43.262Z,14.53
2018-04-08T10:53:10.739Z,13.07
2018-04-08T10:55:38.202Z,12.70
2018-04-08T10:58:05.656Z,15.63
2018-04-08T11:00:33.112Z,14.60
2018-04-08T11:03:04.212Z,11.60
2018-04-08T11:05:31.675Z,13.00
2018-04-08T11:07:59.451Z,14.67
2018-04-08T11:10:37.569Z,12.82
2018-04-08T11:13:05.863Z,12.40
2018-04-08T11:15:33.798Z,10.90
2018-04-08T11:18:01.265Z,19.20
2018-04-08T11:20:28.729Z,11.30
2018-04-08T11:22:56.286Z,10.30
2018-04-08T11:25:23.729Z,11.20
2018-04-08T11:27:51.448Z,12.78
2018-04-08T11:30:18.950Z,18.00
2018-04-08T11:32:46.398Z,14.47
2018-04-08T11:35:14.888Z,11.50
2018-04-08T11:37:42.359Z,12.33
2018-04-08T11:40:12.584Z,16.98
2018-04-08T11:42:40.076Z,18.75
2018-04-08T11:45:07.709Z,18.05
2018-04-08T11:47:35.176Z,14.38
2018-04-08T11:50:02.669Z,16.43
2018-04-08T11:52:30.389Z,11.07
2018-04-08T11:55:01.294Z,13.63
2018-04-08T11:57:32.899Z,21.73
2018-04-08T12:00:00.386Z,12.23
2018-04-08T12:02:27.893Z,13.18
2018-04-08T12:04:57.613Z,11.48
2018-04-08T12:07:25.119Z,13.27
2018-04-08T12:09:52.605Z,12.90
2018-04-08T12:12:20.974Z,10.43
2018-04-08T12:14:48.477Z,14.70
2018-04-08T12:17:15.925Z,15.43
2018-04-08T12:19:43.430Z,14.20
2018-04-08T12:22:10.956Z,12.50
2018-04-08T12:24:38.400Z,12.27
2018-04-08T12:27:11.874Z,18.03
2018-04-08T12:29:39.363Z,10.00
2018-04-08T12:32:06.836Z,17.05
2018-04-08T12:34:34.297Z,9.47
2018-04-08T12:37:01.773Z,14.30
2018-04-08T12:39:30.054Z,18.48
2018-04-08T12:41:57.562Z,14.33
2018-04-08T12:44:25.104Z,14.87
2018-04-08T12:46:54.237Z,10.87
2018-04-08T12:49:21.727Z,11.93
2018-04-08T12:51:50.164Z,13.65
2018-04-08T12:54:18.377Z,13.37
2018-04-08T12:56:45.825Z,9.77
2018-04-08T12:59:14.048Z,9.48
2018-04-08T13:01:42.305Z,12.30
2018-04-08T13:04:09.761Z,10.90
2018-04-08T13:06:37.311Z,24.06
2018-04-08T13:09:04.792Z,15.82
2018-04-08T13:11:33.007Z,13.77
2018-04-08T13:14:00.533Z,11.03
2018-04-08T13:16:28.635Z,13.27
2018-04-08T13:18:56.138Z,13.07
2018-04-08T13:21:23.594Z,9.53
2018-04-08T13:23:51.069Z,14.32
2018-04-08T13:26:28.608Z,11.90
2018-04-08T13:28:56.080Z,12.40
2018-04-08T13:31:23.576Z,14.50
2018-04-08T13:33:51.061Z,13.32
2018-04-08T13:36:18.507Z,13.20
2018-04-08T13:38:45.995Z,10.27
2018-04-08T13:41:13.599Z,11.80
2018-04-08T13:43:41.097Z,12.67
2018-04-08T13:46:08.548Z,10.30
2018-04-08T13:48:37.054Z,10.95
2018-04-08T13:51:04.560Z,8.90
2018-04-08T13:53:32.013Z,8.83
2018-04-08T13:56:00.254Z,13.03
2018-04-08T13:58:27.741Z,13.43
2018-04-08T14:00:55.828Z,10.66
2018-04-08T14:03:24.044Z,11.50
2018-04-08T14:05:51.508Z,10.23
2018-04-08T14:08:18.977Z,11.90
2018-04-08T14:10:46.465Z,11.47
2018-04-08T14:13:13.902Z,12.63
2018-04-08T14:15:41.523Z,12.37
2018-04-08T14:18:09.426Z,16.27
2018-04-08T14:20:36.898Z,13.95
2018-04-08T14:23:04.409Z,10.13
2018-04-08T14:25:31.862Z,8.37
2018-04-08T14:28:03.044Z,10.43
2018-04-08T14:30:30.523Z,8.80
2018-04-08T14:32:59.005Z,9.77
2018-04-08T14:35:27.208Z,8.90
2018-04-08T14:37:54.694Z,7.37
2018-04-08T14:40:22.150Z,10.20
2018-04-08T14:42:52.598Z,9.63
2018-04-08T14:45:20.083Z,8.70
2018-04-08T14:47:48.288Z,9.38
2018-04-08T14:50:15.764Z,7.80
2018-04-08T14:52:43.328Z,7.70
2018-04-08T14:55:10.846Z,11.95
2018-04-08T14:57:41.310Z,13.32
2018-04-08T15:00:09.211Z,11.40
2018-04-08T15:02:37.585Z,10.55
2018-04-08T15:05:05.081Z,8.37
2018-04-08T15:07:32.545Z,7.43
2018-04-08T15:10:00.876Z,9.97
2018-04-08T15:12:28.340Z,7.40
2018-04-08T15:14:56.173Z,10.27
2018-04-08T15:17:23.676Z,7.82
2018-04-08T15:19:52.560Z,9.65
2018-04-08T15:22:20.027Z,6.50
2018-04-08T15:24:48.243Z,7.40
2018-04-08T15:27:16.208Z,9.48
2018-04-08T15:29:45.231Z,8.20
2018-04-08T15:32:12.717Z,9.88
2018-04-08T15:34:41.093Z,10.52
2018-04-08T15:37:08.636Z,6.73
2018-04-08T15:39:36.088Z,6.77
2018-04-08T15:42:03.529Z,9.40
2018-04-08T15:44:31.030Z,16.00
2018-04-08T15:46:58.483Z,8.60
2018-04-08T15:49:26.023Z,12.93
2018-04-08T15:51:53.519Z,8.05
2018-04-08T15:54:21.017Z,8.13
2018-04-08T15:56:49.313Z,7.00
2018-04-08T15:59:16.799Z,7.57
2018-04-08T16:01:44.268Z,6.10
2018-04-08T16:04:12.488Z,6.20
2018-04-08T16:06:40.522Z,6.23
2018-04-08T16:09:08.888Z,7.20
2018-04-08T16:11:36.373Z,8.67
2018-04-08T16:14:03.834Z,8.73
2018-04-08T16:16:31.317Z,14.00
2018-04-08T16:18:58.804Z,7.40
2018-04-08T16:21:26.245Z,7.43
2018-04-08T16:23:53.693Z,9.03
2018-04-08T16:26:21.178Z,7.03
2018-04-08T16:28:49.407Z,7.60
2018-04-08T16:31:16.993Z,7.68
2018-04-08T16:33:44.428Z,6.10
2018-04-08T16:36:11.930Z,7.53
2018-04-08T16:38:39.409Z,11.65
2018-04-08T16:41:06.887Z,5.72
2018-04-08T16:43:35.994Z,5.43
2018-04-08T16:46:03.554Z,6.43
2018-04-08T16:48:31.139Z,6.00
2018-04-08T16:50:58.613Z,5.27
2018-04-08T16:53:26.154Z,11.70
2018-04-08T16:55:53.639Z,4.27
2018-04-08T16:58:21.113Z,5.93
2018-04-08T17:00:48.586Z,9.63
2018-04-08T17:03:16.064Z,7.30
2018-04-08T17:05:45.274Z,7.57
2018-04-08T17:08:12.985Z,12.53
2018-04-08T17:10:41.212Z,7.20
2018-04-08T17:13:08.952Z,15.48
2018-04-08T17:15:36.401Z,10.20
2018-04-08T17:18:04.078Z,8.93
2018-04-08T17:20:31.550Z,8.80
2018-04-08T17:22:59.004Z,6.47
2018-04-08T17:25:26.505Z,8.05
2018-04-08T17:27:54.277Z,8.37
2018-04-08T17:30:23.438Z,6.33
2018-04-08T17:32:50.921Z,13.87
2018-04-08T17:35:18.371Z,8.95
2018-04-08T17:37:45.847Z,8.48
2018-04-08T17:40:13.576Z,19.50
2018-04-08T17:42:42.600Z,10.56
2018-04-08T17:45:10.185Z,7.70
2018-04-08T17:47:37.649Z,15.40
2018-04-08T17:50:05.380Z,8.37
2018-04-08T17:52:32.858Z,8.95
2018-04-08T17:55:02.035Z,9.10
2018-04-08T17:57:30.240Z,8.30
2018-04-08T17:59:57.692Z,11.03
2018-04-08T18:02:30.527Z,11.68
2018-04-08T18:04:57.960Z,9.80
2018-04-08T18:07:26.392Z,10.85
2018-04-08T18:09:53.829Z,9.95
2018-04-08T18:12:22.047Z,11.97
2018-04-08T18:14:49.540Z,15.45
2018-04-08T18:17:16.989Z,14.63
2018-04-08T18:19:44.458Z,7.90
2018-04-08T18:22:12.035Z,12.18
2018-04-08T18:24:41.213Z,7.87
2018-04-08T18:27:09.482Z,11.17
2018-04-08T18:29:36.938Z,13.52
2018-04-08T18:32:09.638Z,13.45
2018-04-08T18:34:37.220Z,10.57
2018-04-08T18:37:05.622Z,13.47
2018-04-08T18:39:33.101Z,15.90
2018-04-08T18:42:00.570Z,10.40
2018-04-08T18:44:28.047Z,10.90
2018-04-08T18:46:55.597Z,10.45
2018-04-08T18:49:23.060Z,10.10
2018-04-08T18:51:51.289Z,13.20
2018-04-08T18:54:19.613Z,14.30
2018-04-08T18:56:48.593Z,10.13
2018-04-08T18:59:16.038Z,10.35
2018-04-08T19:01:47.201Z,13.10
2018-04-08T19:04:15.585Z,19.30
2018-04-08T19:06:44.736Z,10.83
2018-04-08T19:09:12.318Z,10.00
2018-04-08T19:11:40.006Z,10.60
2018-04-08T19:14:07.458Z,11.13
2018-04-08T19:16:34.937Z,11.83
2018-04-08T19:19:02.424Z,15.27
2018-04-08T19:21:29.879Z,16.20
2018-04-08T19:23:58.979Z,12.00
2018-04-08T19:26:26.438Z,12.30
2018-04-08T19:28:53.895Z,13.25
2018-04-08T19:31:21.377Z,11.70
2018-04-08T19:33:48.818Z,17.62
2018-04-08T19:36:16.286Z,13.03
2018-04-08T19:38:43.755Z,16.90
2018-04-08T19:41:12.346Z,11.33
2018-04-08T19:43:39.845Z,15.77
2018-04-08T19:46:07.293Z,12.93
2018-04-08T19:48:34.744Z,12.93
2018-04-08T19:51:02.341Z,12.47
2018-04-08T19:53:29.840Z,10.60
2018-04-08T19:55:58.073Z,11.23
2018-04-08T19:58:25.575Z,11.25
2018-04-08T20:00:53.124Z,19.33
2018-04-08T20:03:20.577Z,12.37
2018-04-08T20:05:48.139Z,15.25
2018-04-08T20:08:15.625Z,11.68
2018-04-08T20:10:43.092Z,10.43
2018-04-08T20:13:10.547Z,11.50
2018-04-08T20:15:39.717Z,15.30
2018-04-08T20:18:07.220Z,17.23
2018-04-08T20:20:34.684Z,16.90
2018-04-08T20:23:02.163Z,10.73
2018-04-08T20:25:29.613Z,10.27
2018-04-08T20:27:57.087Z,13.43
2018-04-08T20:30:24.724Z,9.00
2018-04-08T20:32:52.645Z,10.07
2018-04-08T20:35:20.125Z,12.17
2018-04-08T20:37:48.942Z,10.48
2018-04-08T20:40:16.406Z,10.90
2018-04-08T20:42:43.906Z,12.07
2018-04-08T20:45:11.393Z,12.90
2018-04-08T20:47:39.617Z,13.18
2018-04-08T20:50:10.824Z,10.75
2018-04-08T20:52:38.473Z,15.13
2018-04-08T20:55:05.944Z,13.62
2018-04-08T20:57:33.405Z,11.23
2018-04-08T21:00:00.924Z,13.20
2018-04-08T21:02:28.397Z,11.52
2018-04-08T21:04:56.585Z,15.10
2018-04-08T21:20:52.001Z,14.57
2018-04-08T21:23:19.478Z,14.07
2018-04-08T21:25:46.961Z,17.67
2018-04-08T21:28:14.452Z,11.20
2018-04-08T21:30:41.913Z,10.73
2018-04-08T21:33:11.333Z,15.45
2018-04-08T21:35:39.146Z,14.63
2018-04-08T21:38:06.772Z,11.20
2018-04-08T21:40:34.222Z,13.63
2018-04-08T21:43:01.743Z,13.15
2018-04-08T21:45:29.418Z,13.33
2018-04-08T21:47:56.898Z,16.37
2018-04-08T21:53:06.868Z,13.48
2018-04-08T21:55:34.372Z,11.27
2018-04-08T21:58:06.405Z,12.77
2018-04-08T22:03:11.764Z,18.57
2018-04-08T22:05:40.350Z,13.55
2018-04-08T22:08:09.073Z,10.97
2018-04-08T22:10:42.186Z,15.54
2018-04-08T22:13:09.703Z,12.10
2018-04-08T22:15:37.149Z,14.67
2018-04-08T22:18:05.406Z,15.88
2018-04-08T22:20:32.859Z,12.15
2018-04-08T22:23:28.813Z,14.16
2018-04-08T22:38:51.305Z,16.20
2018-04-08T22:41:18.756Z,13.77
2018-04-08T22:43:46.293Z,17.93
2018-04-08T22:46:13.782Z,14.20
2018-04-08T22:48:41.485Z,17.17
2018-04-08T22:51:13.244Z,15.40
2018-04-08T22:53:40.771Z,15.37
2018-04-08T22:56:08.215Z,14.80
2018-04-08T22:58:35.669Z,16.47
2018-04-08T23:01:03.129Z,20.00
2018-04-08T23:03:30.603Z,18.10
2018-04-08T23:06:01.913Z,17.93
2018-04-08T23:08:30.134Z,17.03
2018-04-08T23:10:57.609Z,15.38
2018-04-08T23:13:25.052Z,20.53
2018-04-08T23:15:52.525Z,12.00
2018-04-08T23:18:20.027Z,15.63
2018-04-08T23:20:47.497Z,19.37
2018-04-08T23:23:16.691Z,14.70
2018-04-08T23:25:44.185Z,18.70
2018-04-08T23:28:11.661Z,16.97
2018-04-08T23:30:39.100Z,19.00
2018-04-08T23:33:06.572Z,16.00
2018-04-08T23:35:34.025Z,16.87
2018-04-08T23:38:04.961Z,15.33
2018-04-08T23:40:32.421Z,15.77
2018-04-08T23:42:59.862Z,19.73
2018-04-08T23:45:27.347Z,14.07
2018-04-08T23:47:55.596Z,15.33
2018-04-08T23:50:23.131Z,16.12
2018-04-08T23:52:55.220Z,17.00
2018-04-08T23:55:22.671Z,19.23
2018-04-08T23:57:50.113Z,17.90
